createdAt,value
2019-03-24T00:00:41.766Z,83.48
2019-03-24T00:01:41.760Z,83.48
2019-03-24T00:02:41.775Z,83.58
2019-03-24T00:03:41.767Z,83.68
2019-03-24T00:04:41.717Z,83.58
2019-03-24T00:05:41.713Z,82.86
2019-03-24T00:06:41.701Z,82.45
2019-03-24T00:07:41.693Z,83.58
2019-03-24T00:08:41.694Z,82.65
2019-03-24T00:09:41.682Z,83.58
2019-03-24T00:10:41.652Z,82.59
2019-03-24T00:11:41.661Z,83.37
2019-03-24T00:12:41.625Z,83.17
2019-03-24T00:13:41.659Z,82.79
2019-03-24T00:14:41.627Z,83.72
2019-03-24T00:15:41.597Z,84.34
2019-03-24T00:16:41.590Z,83.41
2019-03-24T00:17:41.585Z,83.83
2019-03-24T00:18:41.581Z,83.93
2019-03-24T00:19:41.573Z,83.72
2019-03-24T00:20:41.556Z,83.62
2019-03-24T00:21:41.583Z,83.62
2019-03-24T00:22:41.521Z,83.62
2019-03-24T00:23:41.554Z,84.34
2019-03-24T00:24:41.532Z,83.72
2019-03-24T00:25:41.491Z,83.62
2019-03-24T00:26:41.486Z,84.03
2019-03-24T00:27:41.460Z,83.83
2019-03-24T00:28:41.482Z,83.62
2019-03-24T00:29:41.444Z,83.55
2019-03-24T00:30:41.435Z,84.38
2019-03-24T00:31:41.448Z,83.86
2019-03-24T00:32:41.417Z,84.28
2019-03-24T00:33:41.424Z,84.07
2019-03-24T00:34:41.385Z,83.86
2019-03-24T00:35:41.383Z,84.07
2019-03-24T00:36:41.366Z,84.28
2019-03-24T00:37:41.372Z,84.38
2019-03-24T00:38:41.355Z,83.97
2019-03-24T00:39:41.342Z,84.48
2019-03-24T00:40:41.325Z,84.69
2019-03-24T00:41:41.320Z,84.21
2019-03-24T00:42:41.302Z,84.31
2019-03-24T00:43:41.305Z,84.83
2019-03-24T00:44:41.275Z,84.94
2019-03-24T00:45:41.274Z,84.83
2019-03-24T00:46:41.258Z,84.94
2019-03-24T00:47:41.271Z,84.63
2019-03-24T00:48:41.251Z,84.94
2019-03-24T00:49:41.240Z,84.94
2019-03-24T00:50:41.220Z,84.97
2019-03-24T00:51:41.206Z,85.28
2019-03-24T00:52:41.189Z,85.39
2019-03-24T00:53:41.182Z,85.24
2019-03-24T00:54:41.184Z,85.08
2019-03-24T00:55:41.183Z,85.91
2019-03-24T00:56:41.153Z,85.24
2019-03-24T00:57:41.136Z,85.08
2019-03-24T00:58:41.150Z,85.45
2019-03-24T00:59:41.125Z,85.97
2019-03-24T01:00:41.111Z,84.94
2019-03-24T01:01:41.102Z,84.94
2019-03-24T01:02:41.081Z,84.94
2019-03-24T01:03:41.073Z,84.94
2019-03-24T01:04:41.083Z,85.04
2019-03-24T01:05:41.057Z,84.73
2019-03-24T01:06:41.041Z,84.63
2019-03-24T01:07:41.023Z,84.83
2019-03-24T01:08:41.025Z,84.21
2019-03-24T01:09:41.032Z,84.83
2019-03-24T01:10:40.994Z,85.55
2019-03-24T01:11:40.991Z,85.14
2019-03-24T01:12:40.974Z,84.63
2019-03-24T01:13:40.971Z,85.45
2019-03-24T01:14:40.975Z,85.41
2019-03-24T01:15:47.746Z,85.04
2019-03-24T01:16:40.939Z,85.24
2019-03-24T01:17:40.943Z,84.94
2019-03-24T01:18:40.912Z,85.41
2019-03-24T01:19:40.918Z,85.45
2019-03-24T01:20:40.888Z,85.86
2019-03-24T01:22:50.091Z,85.83
2019-03-24T01:23:51.082Z,85.35
2019-03-24T01:24:51.091Z,85.86
2019-03-24T01:25:51.042Z,86.59
2019-03-24T01:26:51.048Z,86.59
2019-03-24T01:27:51.022Z,86.34
2019-03-24T01:28:51.022Z,85.97
2019-03-24T01:29:51.029Z,86.07
2019-03-24T01:30:51.005Z,86.07
2019-03-24T01:31:50.994Z,86.07
2019-03-24T01:32:50.982Z,86.90
2019-03-24T01:33:50.958Z,86.28
2019-03-24T01:34:50.981Z,86.28
2019-03-24T01:35:50.941Z,86.69
2019-03-24T01:36:50.929Z,86.18
2019-03-24T01:37:50.926Z,86.38
2019-03-24T01:38:50.919Z,86.63
2019-03-24T01:39:50.926Z,86.32
2019-03-24T01:40:50.912Z,86.49
2019-03-24T01:41:50.891Z,86.83
2019-03-24T01:42:50.873Z,86.94
2019-03-24T01:43:50.861Z,86.73
2019-03-24T01:44:50.887Z,86.90
2019-03-24T01:45:58.683Z,87.25
2019-03-24T01:46:50.829Z,87.04
2019-03-24T01:47:50.807Z,87.46
2019-03-24T01:48:50.815Z,87.35
2019-03-24T01:49:50.815Z,87.66
2019-03-24T01:50:50.793Z,87.56
2019-03-24T01:51:50.774Z,87.76
2019-03-24T01:52:50.754Z,87.66
2019-03-24T01:53:50.760Z,87.87
2019-03-24T01:54:50.761Z,87.97
2019-03-24T01:55:50.720Z,87.97
2019-03-24T01:56:50.726Z,87.97
2019-03-24T01:57:50.713Z,87.87
2019-03-24T01:58:50.698Z,87.76
2019-03-24T01:59:50.706Z,88.22
2019-03-24T02:00:50.672Z,88.80
2019-03-24T02:01:50.689Z,88.39
2019-03-24T02:02:50.656Z,88.59
2019-03-24T02:03:50.652Z,88.28
2019-03-24T02:04:50.641Z,88.39
2019-03-24T02:05:50.638Z,88.49
2019-03-24T02:06:50.612Z,88.39
2019-03-24T02:07:50.596Z,88.49
2019-03-24T02:08:50.606Z,88.94
2019-03-24T02:09:50.588Z,88.80
2019-03-24T02:10:50.584Z,88.39
2019-03-24T02:11:50.916Z,89.01
2019-03-24T02:12:50.547Z,89.01
2019-03-24T02:13:50.537Z,89.62
2019-03-24T02:14:50.513Z,89.67
2019-03-24T02:15:50.525Z,89.73
2019-03-24T02:16:50.501Z,89.04
2019-03-24T02:17:50.483Z,89.77
2019-03-24T02:18:50.474Z,89.56
2019-03-24T02:19:50.470Z,89.56
2019-03-24T02:20:50.477Z,89.73
2019-03-24T02:21:50.438Z,89.62
2019-03-24T02:22:50.443Z,89.56
2019-03-24T02:23:50.428Z,89.67
2019-03-24T02:24:50.411Z,89.25
2019-03-24T02:25:50.427Z,89.77
2019-03-24T02:26:50.395Z,89.56
2019-03-24T02:27:50.409Z,90.29
2019-03-24T02:28:50.368Z,90.02
2019-03-24T02:29:50.363Z,90.64
2019-03-24T02:30:50.376Z,90.64
2019-03-24T02:31:50.357Z,90.23
2019-03-24T02:32:50.339Z,90.64
2019-03-24T02:33:50.318Z,90.53
2019-03-24T02:34:50.308Z,90.84
2019-03-24T02:35:50.304Z,91.26
2019-03-24T02:36:50.285Z,91.78
2019-03-24T02:37:50.284Z,91.88
2019-03-24T02:38:50.273Z,91.88
2019-03-24T02:39:50.259Z,91.53
2019-03-24T02:40:50.270Z,91.63
2019-03-24T02:41:50.243Z,92.09
2019-03-24T02:42:50.227Z,91.99
2019-03-24T02:43:50.213Z,92.15
2019-03-24T02:44:50.199Z,91.57
2019-03-24T02:45:50.209Z,91.53
2019-03-24T02:46:50.173Z,91.78
2019-03-24T02:47:50.184Z,92.61
2019-03-24T02:48:50.153Z,91.88
2019-03-24T02:49:50.139Z,91.78
2019-03-24T02:50:50.145Z,92.71
2019-03-24T02:51:50.122Z,92.19
2019-03-24T02:52:50.842Z,92.19
2019-03-24T02:53:50.091Z,92.40
2019-03-24T02:54:50.094Z,92.30
2019-03-24T02:55:50.117Z,92.91
2019-03-24T02:56:50.066Z,92.91
2019-03-24T02:57:50.048Z,93.12
2019-03-24T02:58:50.053Z,93.06
2019-03-24T02:59:50.052Z,92.76
2019-03-24T03:00:50.079Z,92.50
2019-03-24T03:01:50.024Z,92.76
2019-03-24T03:02:49.999Z,92.96
2019-03-24T03:03:50.001Z,93.06
2019-03-24T03:04:49.983Z,93.27
2019-03-24T03:05:49.989Z,93.58
2019-03-24T03:06:49.974Z,93.16
2019-03-24T03:07:49.950Z,93.37
2019-03-24T03:08:49.949Z,93.58
2019-03-24T03:09:49.937Z,93.58
2019-03-24T03:10:49.955Z,94.20
2019-03-24T03:11:49.900Z,94.31
2019-03-24T03:12:49.905Z,94.31
2019-03-24T03:13:49.889Z,94.20
2019-03-24T03:14:49.885Z,94.62
2019-03-24T03:15:49.885Z,94.45
2019-03-24T03:16:49.849Z,94.41
2019-03-24T03:17:49.828Z,94.41
2019-03-24T03:18:49.839Z,94.66
2019-03-24T03:19:49.842Z,94.45
2019-03-24T03:20:49.812Z,94.35
2019-03-24T03:21:49.821Z,94.45
2019-03-24T03:23:58.999Z,95.39
2019-03-24T03:24:59.976Z,95.18
2019-03-24T03:25:59.976Z,95.22
2019-03-24T03:26:59.954Z,95.64
2019-03-24T03:27:59.947Z,95.80
2019-03-24T03:28:59.934Z,95.70
2019-03-24T03:29:59.980Z,95.70
2019-03-24T03:30:59.933Z,96.21
2019-03-24T03:31:59.952Z,95.90
2019-03-24T03:32:59.893Z,95.95
2019-03-24T03:33:59.876Z,95.74
2019-03-24T03:34:59.882Z,95.95
2019-03-24T03:35:59.877Z,95.95
2019-03-24T03:36:59.846Z,95.84
2019-03-24T03:37:59.830Z,95.84
2019-03-24T03:38:59.826Z,95.95
2019-03-24T03:39:59.830Z,96.15
2019-03-24T03:40:59.926Z,96.36
2019-03-24T03:41:59.810Z,96.26
2019-03-24T03:42:59.786Z,96.57
2019-03-24T03:43:59.781Z,97.29
2019-03-24T03:44:59.763Z,97.24
2019-03-24T03:45:59.767Z,96.98
2019-03-24T03:46:59.759Z,97.03
2019-03-24T03:47:59.737Z,97.09
2019-03-24T03:48:59.724Z,96.88
2019-03-24T03:49:59.700Z,97.29
2019-03-24T03:50:59.690Z,96.88
2019-03-24T03:51:59.718Z,96.57
2019-03-24T03:52:59.671Z,96.78
2019-03-24T03:53:59.657Z,96.57
2019-03-24T03:54:59.654Z,96.78
2019-03-24T03:55:59.637Z,96.88
2019-03-24T03:56:59.643Z,96.72
2019-03-24T03:57:59.626Z,96.72
2019-03-24T03:58:59.614Z,96.72
2019-03-24T03:59:59.613Z,96.78
2019-03-24T04:00:59.600Z,97.29
2019-03-24T04:01:59.583Z,97.24
2019-03-24T04:02:59.582Z,97.09
2019-03-24T04:03:59.573Z,97.09
2019-03-24T04:04:59.549Z,97.55
2019-03-24T04:05:59.538Z,97.19
2019-03-24T04:06:59.583Z,97.29
2019-03-24T04:07:59.530Z,97.13
2019-03-24T04:08:59.505Z,97.24
2019-03-24T04:09:59.485Z,97.13
2019-03-24T04:10:59.475Z,97.65
2019-03-24T04:11:59.489Z,97.65
2019-03-24T04:12:59.459Z,97.55
2019-03-24T04:13:59.469Z,97.96
2019-03-24T04:14:59.443Z,97.38
2019-03-24T04:15:59.438Z,97.69
2019-03-24T04:17:06.943Z,97.90
2019-03-24T04:17:59.420Z,98.11
2019-03-24T04:18:59.387Z,97.80
2019-03-24T04:19:59.387Z,97.69
2019-03-24T04:20:59.373Z,97.59
2019-03-24T04:21:59.385Z,97.90
2019-03-24T04:22:59.346Z,97.69
2019-03-24T04:23:59.334Z,97.80
2019-03-24T04:24:59.327Z,97.49
2019-03-24T04:25:59.318Z,97.59
2019-03-24T04:26:59.328Z,97.69
2019-03-24T04:27:59.300Z,97.80
2019-03-24T04:28:59.288Z,97.69
2019-03-24T04:29:59.293Z,97.90
2019-03-24T04:30:59.273Z,98.00
2019-03-24T04:31:59.268Z,97.69
2019-03-24T04:32:59.239Z,97.55
2019-03-24T04:33:59.247Z,97.80
2019-03-24T04:34:59.243Z,97.96
2019-03-24T04:35:59.213Z,97.65
2019-03-24T04:36:59.219Z,97.65
2019-03-24T04:37:59.183Z,98.00
2019-03-24T04:38:59.171Z,97.69
2019-03-24T04:39:59.723Z,97.80
2019-03-24T04:40:59.164Z,97.80
2019-03-24T04:41:59.166Z,98.00
2019-03-24T04:42:59.135Z,97.90
2019-03-24T04:43:59.143Z,97.90
2019-03-24T04:44:59.124Z,98.52
2019-03-24T04:45:59.105Z,98.42
2019-03-24T04:46:59.111Z,98.21
2019-03-24T04:47:59.077Z,98.32
2019-03-24T04:48:59.066Z,98.32
2019-03-24T04:49:59.053Z,98.42
2019-03-24T04:50:59.053Z,98.42
2019-03-24T04:51:59.073Z,98.32
2019-03-24T04:52:59.030Z,98.21
2019-03-24T04:53:59.012Z,98.21
2019-03-24T04:54:59.013Z,98.21
2019-03-24T04:55:59.004Z,98.32
2019-03-24T04:56:59.003Z,98.42
2019-03-24T04:57:58.973Z,98.42
2019-03-24T04:58:58.973Z,98.11
2019-03-24T04:59:58.956Z,98.42
2019-03-24T05:00:58.947Z,97.80
2019-03-24T05:01:58.953Z,98.11
2019-03-24T05:02:58.920Z,98.00
2019-03-24T05:03:58.921Z,98.52
2019-03-24T05:04:58.894Z,98.21
2019-03-24T05:05:58.902Z,98.21
2019-03-24T05:06:58.913Z,98.11
2019-03-24T05:07:58.864Z,98.11
2019-03-24T05:08:58.850Z,98.00
2019-03-24T05:09:58.856Z,98.21
2019-03-24T05:10:58.831Z,98.42
2019-03-24T05:11:58.830Z,98.52
2019-03-24T05:12:58.832Z,98.21
2019-03-24T05:13:58.807Z,98.42
2019-03-24T05:14:58.781Z,98.11
2019-03-24T05:15:58.773Z,98.11
2019-03-24T05:16:58.778Z,98.07
2019-03-24T05:17:58.776Z,97.96
2019-03-24T05:18:58.752Z,97.44
2019-03-24T05:19:58.735Z,97.75
2019-03-24T05:20:58.730Z,98.07
2019-03-24T05:21:58.719Z,97.75
2019-03-24T05:22:58.724Z,97.75
2019-03-24T05:25:08.193Z,97.34
2019-03-24T05:26:09.186Z,97.75
2019-03-24T05:27:09.164Z,97.44
2019-03-24T05:28:09.181Z,97.44
2019-03-24T05:29:09.152Z,97.96
2019-03-24T05:30:09.129Z,97.75
2019-03-24T05:31:09.121Z,97.86
2019-03-24T05:32:09.116Z,97.75
2019-03-24T05:33:09.125Z,97.75
2019-03-24T05:34:09.097Z,97.65
2019-03-24T05:35:09.115Z,97.86
2019-03-24T05:36:09.078Z,97.75
2019-03-24T05:37:09.064Z,97.75
2019-03-24T05:38:09.064Z,97.71
2019-03-24T05:39:09.037Z,97.81
2019-03-24T05:40:09.036Z,98.02
2019-03-24T05:41:09.015Z,97.91
2019-03-24T05:42:09.001Z,97.24
2019-03-24T05:43:09.022Z,96.92
2019-03-24T05:44:09.004Z,97.34
2019-03-24T05:45:08.977Z,96.92
2019-03-24T05:46:08.974Z,96.92
2019-03-24T05:47:08.975Z,97.13
2019-03-24T05:48:08.973Z,97.24
2019-03-24T05:49:08.931Z,97.34
2019-03-24T05:50:08.915Z,97.75
2019-03-24T05:51:08.913Z,97.34
2019-03-24T05:52:08.905Z,97.13
2019-03-24T05:53:08.898Z,97.96
2019-03-24T05:54:08.876Z,97.96
2019-03-24T05:55:08.875Z,97.96
2019-03-24T05:56:08.853Z,97.65
2019-03-24T05:57:08.852Z,97.65
2019-03-24T05:58:09.163Z,97.69
2019-03-24T05:59:08.830Z,97.65
2019-03-24T06:00:08.808Z,97.75
2019-03-24T06:01:08.807Z,97.86
2019-03-24T06:02:08.799Z,97.75
2019-03-24T06:03:08.791Z,97.90
2019-03-24T06:04:08.775Z,98.17
2019-03-24T06:05:08.774Z,97.80
2019-03-24T06:06:08.760Z,98.07
2019-03-24T06:07:08.741Z,97.80
2019-03-24T06:08:08.749Z,97.90
2019-03-24T06:09:08.721Z,97.80
2019-03-24T06:10:08.698Z,97.80
2019-03-24T06:11:08.709Z,98.00
2019-03-24T06:12:08.684Z,97.75
2019-03-24T06:13:08.683Z,97.80
2019-03-24T06:14:08.668Z,97.69
2019-03-24T06:15:08.642Z,97.90
2019-03-24T06:16:08.638Z,97.80
2019-03-24T06:17:08.622Z,98.00
2019-03-24T06:18:08.645Z,98.11
2019-03-24T06:19:08.606Z,98.11
2019-03-24T06:20:08.591Z,97.80
2019-03-24T06:21:08.589Z,97.90
2019-03-24T06:22:08.581Z,98.11
2019-03-24T06:23:08.597Z,98.21
2019-03-24T06:24:08.684Z,98.21
2019-03-24T06:25:08.551Z,98.32
2019-03-24T06:26:08.530Z,98.17
2019-03-24T06:27:08.528Z,98.00
2019-03-24T06:28:08.519Z,98.11
2019-03-24T06:29:08.512Z,98.38
2019-03-24T06:30:08.523Z,98.48
2019-03-24T06:31:08.476Z,98.33
2019-03-24T06:32:08.468Z,97.75
2019-03-24T06:33:08.463Z,97.50
2019-03-24T06:34:08.468Z,97.71
2019-03-24T06:35:08.436Z,97.50
2019-03-24T06:36:08.421Z,97.81
2019-03-24T06:37:08.417Z,98.12
2019-03-24T06:38:08.409Z,97.39
2019-03-24T06:39:08.416Z,96.73
2019-03-24T06:40:08.380Z,96.78
2019-03-24T06:41:08.372Z,97.04
2019-03-24T06:42:08.366Z,96.11
2019-03-24T06:43:08.354Z,95.80
2019-03-24T06:44:08.361Z,95.90
2019-03-24T06:45:08.339Z,95.86
2019-03-24T06:46:08.318Z,95.03
2019-03-24T06:47:08.307Z,95.03
2019-03-24T06:48:08.297Z,94.51
2019-03-24T06:49:08.306Z,94.62
2019-03-24T06:50:08.273Z,94.41
2019-03-24T06:51:08.261Z,94.51
2019-03-24T06:52:08.267Z,94.31
2019-03-24T06:53:08.243Z,94.20
2019-03-24T06:54:08.263Z,93.58
2019-03-24T06:55:08.228Z,93.23
2019-03-24T06:56:08.209Z,93.16
2019-03-24T06:57:08.224Z,92.81
2019-03-24T06:58:08.197Z,92.81
2019-03-24T06:59:08.197Z,92.65
2019-03-24T07:00:08.168Z,93.12
2019-03-24T07:01:08.158Z,92.61
2019-03-24T07:02:08.140Z,92.40
2019-03-24T07:03:08.140Z,91.99
2019-03-24T07:04:08.135Z,91.47
2019-03-24T07:05:08.114Z,91.67
2019-03-24T07:06:08.130Z,91.36
2019-03-24T07:07:08.101Z,91.32
2019-03-24T07:08:08.091Z,91.32
2019-03-24T07:09:08.100Z,91.01
2019-03-24T07:10:08.065Z,90.80
2019-03-24T07:11:13.408Z,90.60
2019-03-24T07:12:08.044Z,90.91
2019-03-24T07:13:08.031Z,90.66
2019-03-24T07:14:08.044Z,90.25
2019-03-24T07:15:08.012Z,90.56
2019-03-24T07:16:07.996Z,89.62
2019-03-24T07:17:07.983Z,90.04
2019-03-24T07:18:08.851Z,89.69
2019-03-24T07:19:07.995Z,89.42
2019-03-24T07:20:07.942Z,89.59
2019-03-24T07:21:07.945Z,88.86
2019-03-24T07:22:07.924Z,88.55
2019-03-24T07:23:07.919Z,88.82
2019-03-24T07:24:07.919Z,88.41
2019-03-24T07:26:28.032Z,87.48
2019-03-24T07:27:29.028Z,87.89
2019-03-24T07:28:29.011Z,87.23
2019-03-24T07:29:29.015Z,86.86
2019-03-24T07:30:28.992Z,86.55
2019-03-24T07:31:28.978Z,86.55
2019-03-24T07:32:28.983Z,86.65
2019-03-24T07:33:28.969Z,86.82
2019-03-24T07:34:28.969Z,86.92
2019-03-24T07:35:28.947Z,86.20
2019-03-24T07:36:28.923Z,85.78
2019-03-24T07:37:28.917Z,85.54
2019-03-24T07:38:28.903Z,85.13
2019-03-24T07:39:28.915Z,84.75
2019-03-24T07:40:28.890Z,84.51
2019-03-24T07:41:28.874Z,84.81
2019-03-24T07:42:28.851Z,84.41
2019-03-24T07:43:28.853Z,84.51
2019-03-24T07:44:28.866Z,84.55
2019-03-24T07:45:28.828Z,83.78
2019-03-24T07:46:28.824Z,84.09
2019-03-24T07:47:28.806Z,84.09
2019-03-24T07:48:28.811Z,83.64
2019-03-24T07:49:28.798Z,83.23
2019-03-24T07:50:28.796Z,83.54
2019-03-24T07:51:28.764Z,82.82
2019-03-24T07:52:28.753Z,82.51
2019-03-24T07:53:28.747Z,81.79
2019-03-24T07:54:28.801Z,82.16
2019-03-24T07:55:28.746Z,81.85
2019-03-24T07:56:28.733Z,82.37
2019-03-24T07:57:28.697Z,82.12
2019-03-24T07:58:28.690Z,82.64
2019-03-24T07:59:28.690Z,81.71
2019-03-24T08:00:28.680Z,80.79
2019-03-24T08:01:28.652Z,80.33
2019-03-24T08:02:28.658Z,79.82
2019-03-24T08:03:28.633Z,80.02
2019-03-24T08:04:28.618Z,79.20
2019-03-24T08:05:28.624Z,79.93
2019-03-24T08:06:28.603Z,79.82
2019-03-24T08:07:28.589Z,79.79
2019-03-24T08:08:28.583Z,79.99
2019-03-24T08:09:28.586Z,79.58
2019-03-24T08:10:28.582Z,78.24
2019-03-24T08:11:28.550Z,78.51
2019-03-24T08:12:28.537Z,78.41
2019-03-24T08:13:28.514Z,78.55
2019-03-24T08:14:28.512Z,78.41
2019-03-24T08:15:28.532Z,78.68
2019-03-24T08:16:28.476Z,77.89
2019-03-24T08:17:28.472Z,76.86
2019-03-24T08:18:30.087Z,77.03
2019-03-24T08:19:28.455Z,78.41
2019-03-24T08:20:28.453Z,77.55
2019-03-24T08:21:28.424Z,78.17
2019-03-24T08:22:28.412Z,78.37
2019-03-24T08:23:28.402Z,78.03
2019-03-24T08:24:28.389Z,77.20
2019-03-24T08:25:28.404Z,77.86
2019-03-24T08:26:28.368Z,78.37
2019-03-24T08:27:28.357Z,78.27
2019-03-24T08:28:28.345Z,77.55
2019-03-24T08:29:28.339Z,78.06
2019-03-24T08:30:28.914Z,77.24
2019-03-24T08:31:28.317Z,77.96
2019-03-24T08:32:28.312Z,78.13
2019-03-24T08:33:28.292Z,76.62
2019-03-24T08:34:28.298Z,78.23
2019-03-24T08:35:28.292Z,77.92
2019-03-24T08:36:28.263Z,78.33
2019-03-24T08:37:28.250Z,76.79
2019-03-24T08:38:28.236Z,76.79
2019-03-24T08:39:28.241Z,76.79
2019-03-24T08:40:28.238Z,76.59
2019-03-24T08:41:28.203Z,76.79
2019-03-24T08:42:28.195Z,76.90
2019-03-24T08:43:28.177Z,76.38
2019-03-24T08:44:28.188Z,76.52
2019-03-24T08:45:28.181Z,76.38
2019-03-24T08:46:28.150Z,77.10
2019-03-24T08:47:28.128Z,75.87
2019-03-24T08:48:28.129Z,76.38
2019-03-24T08:49:28.107Z,75.67
2019-03-24T08:50:28.115Z,76.18
2019-03-24T08:51:28.098Z,74.43
2019-03-24T08:52:28.090Z,73.81
2019-03-24T08:53:28.072Z,73.71
2019-03-24T08:54:28.070Z,73.61
2019-03-24T08:55:28.095Z,74.02
2019-03-24T08:56:28.033Z,73.98
2019-03-24T08:57:28.019Z,74.19
2019-03-24T08:58:28.023Z,73.95
2019-03-24T08:59:28.008Z,73.02
2019-03-24T09:00:30.858Z,72.72
2019-03-24T09:01:28.000Z,72.61
2019-03-24T09:02:27.982Z,72.51
2019-03-24T09:03:27.964Z,72.20
2019-03-24T09:04:27.977Z,72.51
2019-03-24T09:05:27.930Z,73.74
2019-03-24T09:06:27.940Z,73.50
2019-03-24T09:07:27.922Z,72.51
2019-03-24T09:08:27.906Z,73.19
2019-03-24T09:09:28.065Z,72.99
2019-03-24T09:10:27.915Z,71.35
2019-03-24T09:11:31.562Z,71.25
2019-03-24T09:12:27.879Z,71.93
2019-03-24T09:13:27.875Z,71.93
2019-03-24T09:14:27.887Z,71.59
2019-03-24T09:15:27.839Z,70.36
2019-03-24T09:16:27.841Z,70.18
2019-03-24T09:17:27.886Z,71.52
2019-03-24T09:18:27.801Z,71.48
2019-03-24T09:19:27.789Z,71.08
2019-03-24T09:20:27.778Z,70.12
2019-03-24T09:21:27.798Z,70.84
2019-03-24T09:22:27.759Z,71.15
2019-03-24T09:23:27.741Z,71.62
2019-03-24T09:24:27.745Z,70.22
2019-03-24T09:25:27.831Z,69.92
2019-03-24T09:27:58.801Z,70.12
2019-03-24T09:28:59.776Z,70.22
2019-03-24T09:29:59.763Z,69.78
2019-03-24T09:30:59.766Z,70.53
2019-03-24T09:31:59.797Z,71.25
2019-03-24T09:32:59.758Z,70.19
2019-03-24T09:33:59.711Z,69.78
2019-03-24T09:34:59.709Z,71.35
2019-03-24T09:35:59.698Z,71.11
2019-03-24T09:36:59.738Z,69.57
2019-03-24T09:37:59.686Z,68.04
2019-03-24T09:38:59.661Z,66.78
2019-03-24T09:39:59.659Z,65.75
2019-03-24T09:40:59.658Z,65.55
2019-03-24T09:41:59.656Z,64.42
2019-03-24T09:42:59.618Z,63.70
2019-03-24T09:43:59.624Z,61.66
2019-03-24T09:44:59.610Z,59.92
2019-03-24T09:45:59.608Z,60.86
2019-03-24T09:46:59.608Z,61.38
2019-03-24T09:47:59.567Z,62.68
2019-03-24T09:49:03.431Z,63.68
2019-03-24T09:49:59.543Z,62.04
2019-03-24T09:50:59.541Z,61.40
2019-03-24T09:51:59.554Z,61.19
2019-03-24T09:52:59.533Z,59.96
2019-03-24T09:53:59.510Z,59.55
2019-03-24T09:55:00.322Z,60.47
2019-03-24T09:55:59.499Z,59.96
2019-03-24T09:56:59.500Z,59.66
2019-03-24T09:57:59.469Z,58.33
2019-03-24T09:58:59.460Z,58.94
2019-03-24T09:59:59.445Z,57.28
2019-03-24T10:00:59.421Z,56.87
2019-03-24T10:01:59.441Z,56.69
2019-03-24T10:02:59.403Z,59.41
2019-03-24T10:03:59.400Z,59.99
2019-03-24T10:04:59.418Z,57.81
2019-03-24T10:05:59.377Z,57.71
2019-03-24T10:06:59.382Z,57.92
2019-03-24T10:07:59.360Z,57.17
2019-03-24T10:08:59.347Z,56.66
2019-03-24T10:09:59.327Z,57.68
2019-03-24T10:10:59.325Z,58.20
2019-03-24T10:11:59.325Z,59.01
2019-03-24T10:12:59.303Z,59.39
2019-03-24T10:13:59.278Z,59.22
2019-03-24T10:14:59.283Z,60.75
2019-03-24T10:15:59.255Z,61.03
2019-03-24T10:16:59.278Z,60.28
2019-03-24T10:17:59.250Z,59.80
2019-03-24T10:18:59.254Z,59.80
2019-03-24T10:19:59.217Z,60.93
2019-03-24T10:20:59.208Z,60.83
2019-03-24T10:21:59.216Z,59.98
2019-03-24T10:22:59.196Z,59.78
2019-03-24T10:23:59.168Z,59.16
2019-03-24T10:24:59.206Z,58.61
2019-03-24T10:25:59.164Z,59.60
2019-03-24T10:26:59.157Z,57.66
2019-03-24T10:27:59.152Z,57.86
2019-03-24T10:28:59.135Z,55.94
2019-03-24T10:29:59.105Z,55.13
2019-03-24T10:30:59.101Z,54.44
2019-03-24T10:31:59.102Z,55.41
2019-03-24T10:32:59.092Z,56.71
2019-03-24T10:33:59.082Z,55.33
2019-03-24T10:34:59.056Z,54.41
2019-03-24T10:35:59.048Z,55.56
2019-03-24T10:36:59.067Z,56.92
2019-03-24T10:37:59.033Z,58.32
2019-03-24T10:38:59.012Z,58.42
2019-03-24T10:39:58.995Z,58.96
2019-03-24T10:40:58.988Z,59.85
2019-03-24T10:41:58.996Z,59.95
2019-03-24T10:42:58.967Z,59.85
2019-03-24T10:43:58.955Z,59.69
2019-03-24T10:44:58.948Z,59.97
2019-03-24T10:45:58.972Z,59.41
2019-03-24T10:46:58.949Z,58.01
2019-03-24T10:47:58.914Z,57.43
2019-03-24T10:48:58.900Z,58.75
2019-03-24T10:49:58.888Z,57.22
2019-03-24T10:50:58.871Z,57.04
2019-03-24T10:51:58.883Z,57.66
2019-03-24T10:52:58.858Z,56.53
2019-03-24T10:53:58.880Z,55.30
2019-03-24T10:54:58.837Z,52.95
2019-03-24T10:55:58.843Z,54.49
2019-03-24T10:56:58.844Z,55.49
2019-03-24T10:57:58.807Z,55.66
2019-03-24T10:58:58.796Z,55.23
2019-03-24T10:59:58.776Z,54.74
2019-03-24T11:00:58.777Z,55.15
2019-03-24T11:01:58.772Z,54.00
2019-03-24T11:02:58.760Z,53.57
2019-03-24T11:03:58.765Z,52.96
2019-03-24T11:04:58.718Z,52.80
2019-03-24T11:05:58.722Z,53.47
2019-03-24T11:06:58.697Z,54.67
2019-03-24T11:07:58.752Z,52.60
2019-03-24T11:08:58.686Z,52.45
2019-03-24T11:09:58.683Z,52.55
2019-03-24T11:10:58.662Z,52.45
2019-03-24T11:11:58.639Z,52.34
2019-03-24T11:12:58.652Z,51.53
2019-03-24T11:13:58.627Z,53.06
2019-03-24T11:14:58.611Z,53.75
2019-03-24T11:15:59.630Z,51.20
2019-03-24T11:16:58.605Z,50.89
2019-03-24T11:17:58.610Z,52.86
2019-03-24T11:18:58.570Z,53.08
2019-03-24T11:19:58.552Z,54.08
2019-03-24T11:20:58.547Z,54.00
2019-03-24T11:21:58.536Z,54.44
2019-03-24T11:22:58.553Z,55.10
2019-03-24T11:23:58.601Z,52.42
2019-03-24T11:24:58.532Z,52.04
2019-03-24T11:25:58.535Z,52.86
2019-03-24T11:26:58.490Z,51.68
2019-03-24T11:29:08.790Z,51.20
2019-03-24T11:30:09.723Z,49.98
2019-03-24T11:31:09.713Z,50.79
2019-03-24T11:32:09.709Z,51.12
2019-03-24T11:33:09.721Z,51.32
2019-03-24T11:34:09.687Z,50.79
2019-03-24T11:35:09.686Z,50.81
2019-03-24T11:36:09.674Z,50.81
2019-03-24T11:37:09.655Z,51.12
2019-03-24T11:38:09.659Z,50.79
2019-03-24T11:39:09.649Z,51.20
2019-03-24T11:40:09.618Z,50.77
2019-03-24T11:41:09.609Z,51.35
2019-03-24T11:42:09.593Z,50.92
2019-03-24T11:43:09.606Z,50.90
2019-03-24T11:44:09.577Z,50.57
2019-03-24T11:45:09.562Z,49.04
2019-03-24T11:46:09.558Z,50.56
2019-03-24T11:47:09.548Z,51.43
2019-03-24T11:48:09.555Z,52.55
2019-03-24T11:49:09.525Z,52.67
2019-03-24T11:50:09.516Z,51.76
2019-03-24T11:51:09.503Z,51.84
2019-03-24T11:52:09.488Z,50.89
2019-03-24T11:53:09.506Z,51.07
2019-03-24T11:54:09.480Z,51.22
2019-03-24T11:55:09.455Z,50.92
2019-03-24T11:56:09.456Z,51.43
2019-03-24T11:57:09.432Z,50.99
2019-03-24T11:58:09.441Z,50.02
2019-03-24T11:59:09.918Z,51.25
2019-03-24T12:00:09.399Z,51.20
2019-03-24T12:01:09.391Z,50.59
2019-03-24T12:02:09.384Z,50.31
2019-03-24T12:03:09.434Z,50.81
2019-03-24T12:04:09.368Z,50.71
2019-03-24T12:05:09.353Z,51.32
2019-03-24T12:06:14.332Z,51.25
2019-03-24T12:07:09.325Z,50.99
2019-03-24T12:08:09.341Z,49.67
2019-03-24T12:09:09.311Z,49.05
2019-03-24T12:10:09.296Z,50.05
2019-03-24T12:11:09.287Z,47.81
2019-03-24T12:12:09.274Z,47.61
2019-03-24T12:13:09.283Z,48.83
2019-03-24T12:14:09.246Z,47.77
2019-03-24T12:15:09.235Z,46.22
2019-03-24T12:16:09.236Z,47.05
2019-03-24T12:17:09.223Z,47.69
2019-03-24T12:18:09.220Z,47.17
2019-03-24T12:19:09.201Z,48.19
2019-03-24T12:20:09.194Z,47.26
2019-03-24T12:21:09.175Z,46.22
2019-03-24T12:22:09.159Z,45.63
2019-03-24T12:23:09.174Z,45.73
2019-03-24T12:24:09.143Z,46.42
2019-03-24T12:25:09.123Z,45.81
2019-03-24T12:26:09.135Z,46.11
2019-03-24T12:27:09.108Z,44.87
2019-03-24T12:28:09.126Z,44.26
2019-03-24T12:29:09.096Z,44.77
2019-03-24T12:30:09.077Z,44.77
2019-03-24T12:31:09.062Z,44.45
2019-03-24T12:32:09.066Z,44.65
2019-03-24T12:33:09.053Z,44.54
2019-03-24T12:34:09.027Z,45.68
2019-03-24T12:35:09.024Z,46.95
2019-03-24T12:36:09.009Z,46.85
2019-03-24T12:37:09.003Z,45.54
2019-03-24T12:38:09.005Z,46.26
2019-03-24T12:39:08.977Z,46.03
2019-03-24T12:40:08.982Z,44.81
2019-03-24T12:41:08.950Z,44.92
2019-03-24T12:42:08.944Z,44.71
2019-03-24T12:43:18.865Z,44.08
2019-03-24T12:44:08.920Z,44.40
2019-03-24T12:45:08.911Z,44.69
2019-03-24T12:46:08.905Z,45.20
2019-03-24T12:47:08.883Z,44.08
2019-03-24T12:48:08.978Z,44.81
2019-03-24T12:49:08.879Z,44.57
2019-03-24T12:50:10.017Z,44.57
2019-03-24T12:51:08.855Z,44.34
2019-03-24T12:52:08.832Z,43.51
2019-03-24T12:53:08.849Z,44.14
2019-03-24T12:54:08.811Z,44.32
2019-03-24T12:55:08.815Z,43.43
2019-03-24T12:56:08.785Z,44.02
2019-03-24T12:57:08.781Z,44.46
2019-03-24T12:58:08.785Z,45.30
2019-03-24T12:59:08.775Z,45.73
2019-03-24T13:00:08.756Z,46.34